createdAt,value
2022-09-10T00:01:41.397Z,52.30
2022-09-10T00:04:07.885Z,52.20
2022-09-10T00:06:34.375Z,52.10
2022-09-10T00:09:00.849Z,52.20
2022-09-10T00:11:27.310Z,52.30
2022-09-10T00:13:53.814Z,52.30
2022-09-10T00:16:20.330Z,52.20
2022-09-10T00:18:46.830Z,52.10
2022-09-10T00:21:13.301Z,52.20
2022-09-10T00:23:39.803Z,52.10
2022-09-10T00:26:06.279Z,52.10
2022-09-10T00:28:32.787Z,52.20
2022-09-10T00:30:59.263Z,52.30
2022-09-10T00:33:25.786Z,52.30
2022-09-10T00:35:52.293Z,52.10
2022-09-10T00:38:18.755Z,52.10
2022-09-10T00:40:45.225Z,52.20
2022-09-10T00:43:11.719Z,52.10
2022-09-10T00:45:38.236Z,52.00
2022-09-10T00:48:04.772Z,52.10
2022-09-10T00:50:31.251Z,52.10
2022-09-10T00:52:57.726Z,52.10
2022-09-10T00:55:24.187Z,52.10
2022-09-10T00:57:50.667Z,52.10
2022-09-10T01:00:17.141Z,52.20
2022-09-10T01:02:43.609Z,52.10
2022-09-10T01:05:10.076Z,52.00
2022-09-10T01:07:36.548Z,51.90
2022-09-10T01:10:03.029Z,52.10
2022-09-10T01:12:32.132Z,52.10
2022-09-10T01:15:02.131Z,52.10
2022-09-10T01:17:28.612Z,52.10
2022-09-10T01:19:55.119Z,52.10
2022-09-10T01:22:21.603Z,52.10
2022-09-10T01:24:48.071Z,52.00
2022-09-10T01:27:14.528Z,52.00
2022-09-10T01:29:41.001Z,52.10
2022-09-10T01:32:07.480Z,52.10
2022-09-10T01:34:33.965Z,52.00
2022-09-10T01:37:00.442Z,52.00
2022-09-10T01:39:26.931Z,52.00
2022-09-10T01:41:53.387Z,52.00
2022-09-10T01:44:19.888Z,52.00
2022-09-10T01:46:46.378Z,51.90
2022-09-10T01:49:12.880Z,52.00
2022-09-10T01:51:39.364Z,52.00
2022-09-10T01:54:05.868Z,51.90
2022-09-10T01:56:32.341Z,52.00
2022-09-10T01:58:58.820Z,52.00
2022-09-10T02:01:25.362Z,52.00
2022-09-10T02:03:51.876Z,52.00
2022-09-10T02:06:18.331Z,51.90
2022-09-10T02:08:44.810Z,51.90
2022-09-10T02:11:11.284Z,51.80
2022-09-10T02:13:37.766Z,51.90
2022-09-10T02:16:04.249Z,51.90
2022-09-10T02:18:30.828Z,52.00
2022-09-10T02:21:00.393Z,51.90
2022-09-10T02:23:26.887Z,52.50
2022-09-10T02:25:53.366Z,51.90
2022-09-10T02:28:19.851Z,51.90
2022-09-10T02:30:46.334Z,51.80
2022-09-10T02:33:12.829Z,51.80
2022-09-10T02:35:39.299Z,51.90
2022-09-10T02:38:05.811Z,52.00
2022-09-10T02:40:32.290Z,52.00
2022-09-10T02:42:58.790Z,51.80
2022-09-10T02:45:25.279Z,51.80
2022-09-10T02:47:51.796Z,51.80
2022-09-10T02:50:18.279Z,51.90
2022-09-10T02:52:44.744Z,52.00
2022-09-10T02:55:11.236Z,51.90
2022-09-10T02:57:37.704Z,52.50
2022-09-10T03:00:04.173Z,51.80
2022-09-10T03:02:30.654Z,51.80
2022-09-10T03:04:57.142Z,51.90
2022-09-10T03:07:23.629Z,51.90
2022-09-10T03:09:50.103Z,51.90
2022-09-10T03:12:16.587Z,51.80
2022-09-10T03:14:43.089Z,51.80
2022-09-10T03:17:09.567Z,51.90
2022-09-10T03:19:36.034Z,52.00
2022-09-10T03:22:02.484Z,51.90
2022-09-10T03:24:28.961Z,51.90
2022-09-10T03:26:55.442Z,51.80
2022-09-10T03:29:21.938Z,51.90
2022-09-10T03:31:48.493Z,51.80
2022-09-10T03:34:15.008Z,51.90
2022-09-10T03:36:41.496Z,51.70
2022-09-10T03:39:07.995Z,51.80
2022-09-10T03:41:34.475Z,51.80
2022-09-10T03:44:00.984Z,51.70
2022-09-10T03:46:27.462Z,51.70
2022-09-10T03:48:55.449Z,51.70
2022-09-10T03:51:22.112Z,51.70
2022-09-10T03:53:48.577Z,51.70
2022-09-10T03:56:15.046Z,51.80
2022-09-10T03:58:41.518Z,51.80
2022-09-10T04:01:08.028Z,51.70
2022-09-10T04:03:34.527Z,51.80
2022-09-10T04:06:01.002Z,51.80
2022-09-10T04:08:27.512Z,52.30
2022-09-10T04:10:53.981Z,51.80
2022-09-10T04:13:20.469Z,51.80
2022-09-10T04:15:46.941Z,51.70
2022-09-10T04:18:13.407Z,51.70
2022-09-10T04:20:39.880Z,51.80
2022-09-10T04:23:06.347Z,51.90
2022-09-10T04:25:32.839Z,51.70
2022-09-10T04:27:59.309Z,51.80
2022-09-10T04:30:25.784Z,51.80
2022-09-10T04:32:52.243Z,51.90
2022-09-10T04:35:18.735Z,51.90
2022-09-10T04:37:45.214Z,51.90
2022-09-10T04:40:11.740Z,51.90
2022-09-10T04:42:38.266Z,51.90
2022-09-10T04:45:04.750Z,51.90
2022-09-10T04:47:31.209Z,51.80
2022-09-10T04:49:57.679Z,51.80
2022-09-10T04:52:24.159Z,51.90
2022-09-10T04:54:50.665Z,51.90
2022-09-10T04:57:17.129Z,51.90
2022-09-10T04:59:43.631Z,52.00
2022-09-10T05:02:10.458Z,52.00
2022-09-10T05:04:36.998Z,51.90
2022-09-10T05:07:03.458Z,51.90
2022-09-10T05:09:29.961Z,52.00
2022-09-10T05:11:56.423Z,52.00
2022-09-10T05:14:22.909Z,52.00
2022-09-10T05:16:49.386Z,52.00
2022-09-10T05:19:15.883Z,52.00
2022-09-10T05:21:42.359Z,52.00
2022-09-10T05:24:08.821Z,52.00
2022-09-10T05:26:35.293Z,52.00
2022-09-10T05:29:01.757Z,52.10
2022-09-10T05:31:28.332Z,52.10
2022-09-10T05:33:54.826Z,52.00
2022-09-10T05:36:21.309Z,52.00
2022-09-10T05:38:47.776Z,52.00
2022-09-10T05:41:14.240Z,52.00
2022-09-10T05:43:40.704Z,52.10
2022-09-10T05:46:07.200Z,52.00
2022-09-10T05:48:33.705Z,52.00
2022-09-10T05:51:00.171Z,52.00
2022-09-10T05:53:26.654Z,52.10
2022-09-10T05:55:53.142Z,52.10
2022-09-10T05:58:19.622Z,52.20
2022-09-10T06:00:46.126Z,52.10
2022-09-10T06:03:12.681Z,52.00
2022-09-10T06:05:39.263Z,52.10
2022-09-10T06:08:08.720Z,52.10
2022-09-10T06:10:35.656Z,52.10
2022-09-10T06:13:02.114Z,52.10
2022-09-10T06:15:28.599Z,52.10
2022-09-10T06:17:55.077Z,52.00
2022-09-10T06:20:21.580Z,52.10
2022-09-10T06:22:48.067Z,52.20
2022-09-10T06:25:14.552Z,52.20
2022-09-10T06:27:41.007Z,52.30
2022-09-10T06:30:07.519Z,52.90
2022-09-10T06:32:33.986Z,52.10
2022-09-10T06:35:00.451Z,52.30
2022-09-10T06:37:26.926Z,52.20
2022-09-10T06:39:53.447Z,52.30
2022-09-10T06:42:19.927Z,52.20
2022-09-10T06:44:46.394Z,52.20
2022-09-10T06:48:06.520Z,52.30
2022-09-10T06:49:59.312Z,52.30
2022-09-10T06:52:25.803Z,52.30
2022-09-10T06:54:52.280Z,52.30
2022-09-10T06:57:18.756Z,52.30
2022-09-10T06:59:45.223Z,52.40
2022-09-10T07:02:11.695Z,52.30
2022-09-10T07:04:38.180Z,52.30
2022-09-10T07:07:04.662Z,52.30
2022-09-10T07:09:31.139Z,52.40
2022-09-10T07:11:57.611Z,52.40
2022-09-10T07:14:24.091Z,52.30
2022-09-10T07:16:50.558Z,52.30
2022-09-10T07:19:17.038Z,52.40
2022-09-10T07:21:43.512Z,52.40
2022-09-10T07:24:09.966Z,52.50
2022-09-10T07:26:36.431Z,52.50
2022-09-10T07:29:02.905Z,52.60
2022-09-10T07:31:29.395Z,52.60
2022-09-10T07:33:55.864Z,52.50
2022-09-10T07:36:22.349Z,52.50
2022-09-10T07:38:48.843Z,52.60
2022-09-10T07:41:15.324Z,52.60
2022-09-10T07:43:41.794Z,52.60
2022-09-10T07:46:08.327Z,52.60
2022-09-10T07:48:34.858Z,52.70
2022-09-10T07:51:01.361Z,52.70
2022-09-10T07:53:27.823Z,52.70
2022-09-10T07:55:54.305Z,52.70
2022-09-10T07:58:20.789Z,52.70
2022-09-10T08:00:47.293Z,52.70
2022-09-10T08:03:13.746Z,52.70
2022-09-10T08:05:40.223Z,52.70
2022-09-10T08:08:06.696Z,52.70
2022-09-10T08:10:33.185Z,52.60
2022-09-10T08:12:59.674Z,52.70
2022-09-10T08:15:26.176Z,52.70
2022-09-10T08:17:52.836Z,52.70
2022-09-10T08:20:19.291Z,52.70
2022-09-10T08:22:45.767Z,52.70
2022-09-10T08:25:12.240Z,52.60
2022-09-10T08:27:38.732Z,52.70
2022-09-10T08:30:05.209Z,52.60
2022-09-10T08:32:31.670Z,52.70
2022-09-10T08:34:58.128Z,52.80
2022-09-10T08:37:24.614Z,52.80
2022-09-10T08:39:51.133Z,52.90
2022-09-10T08:42:17.611Z,52.80
2022-09-10T08:44:44.065Z,52.80
2022-09-10T08:47:10.548Z,52.90
2022-09-10T08:49:37.003Z,52.90
2022-09-10T08:52:03.467Z,52.90
2022-09-10T08:54:29.949Z,53.00
2022-09-10T08:56:56.436Z,52.90
2022-09-10T08:59:22.920Z,52.90
2022-09-10T09:01:49.568Z,52.90
2022-09-10T09:04:16.127Z,52.90
2022-09-10T09:06:42.607Z,53.00
2022-09-10T09:09:13.508Z,53.00
2022-09-10T09:11:41.883Z,53.00
2022-09-10T09:14:08.355Z,53.10
2022-09-10T09:16:34.856Z,53.20
2022-09-10T09:19:01.339Z,53.10
2022-09-10T09:21:27.840Z,53.10
2022-09-10T09:24:12.113Z,53.10
2022-09-10T09:26:39.510Z,53.20
2022-09-10T09:29:05.981Z,53.20
2022-09-10T09:31:32.515Z,53.10
2022-09-10T09:33:59.017Z,53.10
2022-09-10T09:36:25.482Z,53.10
2022-09-10T09:38:51.938Z,53.20
2022-09-10T09:41:18.400Z,53.10
2022-09-10T09:43:44.869Z,53.30
2022-09-10T09:46:11.419Z,53.30
2022-09-10T09:48:37.984Z,53.30
2022-09-10T09:51:04.497Z,53.30
2022-09-10T09:53:30.981Z,53.30
2022-09-10T09:55:57.452Z,53.30
2022-09-10T09:58:23.932Z,53.30
2022-09-10T10:00:50.406Z,53.30
2022-09-10T10:03:16.888Z,53.30
2022-09-10T10:05:43.406Z,53.30
2022-09-10T10:08:09.903Z,53.40
2022-09-10T10:10:36.367Z,53.30
2022-09-10T10:13:02.843Z,53.40
2022-09-10T10:15:29.324Z,53.50
2022-09-10T10:17:55.811Z,53.50
2022-09-10T10:20:22.276Z,53.40
2022-09-10T10:22:48.744Z,53.40
2022-09-10T10:25:15.218Z,53.50
2022-09-10T10:27:41.723Z,53.50
2022-09-10T10:30:08.225Z,53.50
2022-09-10T10:32:34.744Z,53.50
2022-09-10T10:35:01.223Z,53.50
2022-09-10T10:37:28.806Z,53.60
2022-09-10T10:39:55.305Z,53.80
2022-09-10T10:42:21.787Z,53.90
2022-09-10T10:44:48.256Z,53.80
2022-09-10T10:47:14.742Z,53.80
2022-09-10T10:49:41.225Z,53.80
2022-09-10T10:52:07.705Z,54.00
2022-09-10T10:54:34.170Z,53.80
2022-09-10T10:57:00.664Z,54.00
2022-09-10T10:59:27.143Z,53.80
2022-09-10T11:01:53.715Z,53.90
2022-09-10T11:04:20.275Z,53.90
2022-09-10T11:06:46.779Z,54.50
2022-09-10T11:09:13.246Z,54.00
2022-09-10T11:11:39.739Z,54.00
2022-09-10T11:14:06.205Z,54.10
2022-09-10T11:16:32.686Z,54.00
2022-09-10T11:18:59.167Z,54.00
2022-09-10T11:21:25.650Z,54.00
2022-09-10T11:23:52.118Z,53.90
2022-09-10T11:26:18.580Z,54.00
2022-09-10T11:28:45.058Z,54.00
2022-09-10T11:31:11.622Z,54.00
2022-09-10T11:33:38.231Z,54.00
2022-09-10T11:36:04.696Z,54.00
2022-09-10T11:38:31.260Z,54.00
2022-09-10T11:40:57.752Z,54.00
2022-09-10T11:43:24.227Z,54.10
2022-09-10T11:45:50.698Z,54.20
2022-09-10T11:48:17.177Z,54.20
2022-09-10T11:50:43.651Z,54.10
2022-09-10T11:53:10.110Z,54.10
2022-09-10T11:55:36.584Z,54.20
2022-09-10T11:58:03.056Z,54.00
2022-09-10T12:00:29.537Z,54.10
2022-09-10T12:02:56.010Z,54.10
2022-09-10T12:05:22.478Z,54.20
2022-09-10T12:07:48.952Z,54.20
2022-09-10T12:10:15.420Z,54.20
2022-09-10T12:12:41.902Z,54.10
2022-09-10T12:15:08.367Z,54.20
2022-09-10T12:17:34.834Z,54.20
2022-09-10T12:20:01.300Z,54.20
2022-09-10T12:22:27.759Z,54.30
2022-09-10T12:24:54.224Z,54.30
2022-09-10T12:27:20.702Z,54.20
2022-09-10T12:29:47.184Z,54.30
2022-09-10T12:32:13.677Z,54.30
2022-09-10T12:34:40.154Z,54.30
2022-09-10T12:37:06.629Z,54.20
2022-09-10T12:39:33.106Z,54.30
2022-09-10T12:41:59.602Z,54.30
2022-09-10T12:44:26.058Z,54.40
2022-09-10T12:46:52.524Z,54.20
2022-09-10T12:49:19.002Z,54.40
2022-09-10T12:51:45.538Z,54.40
2022-09-10T12:54:12.021Z,54.30
2022-09-10T12:56:38.506Z,54.40
2022-09-10T12:59:04.975Z,54.40
2022-09-10T13:01:31.591Z,54.40
2022-09-10T13:03:58.214Z,54.40
2022-09-10T13:06:24.687Z,54.50
2022-09-10T13:08:51.187Z,54.40
2022-09-10T13:11:17.662Z,54.50
2022-09-10T13:13:44.138Z,54.40
2022-09-10T13:16:10.639Z,54.60
2022-09-10T13:18:37.122Z,54.60
2022-09-10T13:21:03.597Z,54.60
2022-09-10T13:23:30.067Z,54.60
2022-09-10T13:25:56.538Z,54.60
2022-09-10T13:28:23.064Z,54.70
2022-09-10T13:30:49.581Z,54.70
2022-09-10T13:33:21.319Z,54.70
2022-09-10T13:35:49.110Z,54.80
2022-09-10T13:38:15.596Z,54.70
2022-09-10T13:40:42.057Z,54.90
2022-09-10T13:43:08.556Z,54.90
2022-09-10T13:45:35.021Z,54.80
2022-09-10T13:48:01.510Z,54.90
2022-09-10T13:50:28.001Z,54.90
2022-09-10T13:52:54.514Z,54.90
2022-09-10T13:55:20.987Z,54.80
2022-09-10T13:57:47.474Z,54.80
2022-09-10T14:00:13.971Z,54.90
2022-09-10T14:02:40.493Z,54.90
2022-09-10T14:05:07.003Z,55.00
2022-09-10T14:07:33.483Z,55.00
2022-09-10T14:10:00.047Z,55.00
2022-09-10T14:12:26.556Z,54.80
2022-09-10T14:14:53.038Z,55.00
2022-09-10T14:17:19.529Z,55.00
2022-09-10T14:19:46.009Z,54.90
2022-09-10T14:22:12.470Z,55.70
2022-09-10T14:24:38.933Z,55.20
2022-09-10T14:27:05.390Z,55.20
2022-09-10T14:29:31.870Z,55.10
2022-09-10T14:31:58.355Z,55.00
2022-09-10T14:34:24.857Z,55.20
2022-09-10T14:36:51.340Z,55.20
2022-09-10T14:39:17.838Z,55.30
2022-09-10T14:41:44.305Z,55.30
2022-09-10T14:44:10.815Z,55.30
2022-09-10T14:46:37.328Z,55.30
2022-09-10T14:49:03.807Z,55.30
2022-09-10T14:51:30.273Z,55.20
2022-09-10T14:53:56.755Z,55.20
2022-09-10T14:56:23.239Z,55.20
2022-09-10T14:58:49.710Z,55.30
2022-09-10T15:01:16.212Z,55.30
2022-09-10T15:03:42.731Z,55.30
2022-09-10T15:06:09.239Z,55.30
2022-09-10T15:08:35.737Z,55.20
2022-09-10T15:11:02.212Z,55.30
2022-09-10T15:13:28.687Z,55.50
2022-09-10T15:15:55.203Z,55.40
2022-09-10T15:18:21.708Z,55.60
2022-09-10T15:20:48.180Z,55.90
2022-09-10T15:23:14.648Z,55.70
2022-09-10T15:25:41.120Z,55.70
2022-09-10T15:28:07.611Z,55.70
2022-09-10T15:30:34.094Z,55.70
2022-09-10T15:33:00.555Z,55.70
2022-09-10T15:35:27.050Z,55.70
2022-09-10T15:37:53.534Z,56.30
2022-09-10T15:40:20.027Z,56.80
2022-09-10T15:42:46.500Z,56.00
2022-09-10T15:45:12.998Z,55.90
2022-09-10T15:47:39.463Z,55.90
2022-09-10T15:50:05.951Z,56.00
2022-09-10T15:52:32.415Z,56.40
2022-09-10T15:54:58.898Z,56.60
2022-09-10T15:57:25.383Z,56.50
2022-09-10T15:59:51.911Z,56.40
2022-09-10T16:02:18.384Z,56.30
2022-09-10T16:04:44.875Z,56.70
2022-09-10T16:07:11.360Z,56.80
2022-09-10T16:09:37.841Z,56.70
2022-09-10T16:12:04.307Z,56.80
2022-09-10T16:14:30.793Z,57.30
2022-09-10T16:16:57.277Z,57.30
2022-09-10T16:19:23.764Z,57.20
2022-09-10T16:21:50.230Z,57.20
2022-09-10T16:24:16.719Z,56.70
2022-09-10T16:26:43.209Z,56.60
2022-09-10T16:29:09.663Z,56.90
2022-09-10T16:31:36.153Z,56.60
2022-09-10T16:34:02.643Z,56.60
2022-09-10T16:36:29.119Z,56.60
2022-09-10T16:38:55.594Z,56.70
2022-09-10T16:41:22.081Z,56.70
2022-09-10T16:43:48.567Z,56.50
2022-09-10T16:46:15.068Z,56.40
2022-09-10T16:48:41.698Z,56.40
2022-09-10T16:51:08.301Z,56.40
2022-09-10T16:53:34.769Z,56.40
2022-09-10T16:56:01.251Z,56.40
2022-09-10T16:58:27.738Z,56.30
2022-09-10T17:00:54.223Z,56.40
2022-09-10T17:03:20.693Z,56.40
2022-09-10T17:05:47.170Z,56.50
2022-09-10T17:08:13.637Z,56.50
2022-09-10T17:10:40.106Z,56.50
2022-09-10T17:13:06.582Z,56.90
2022-09-10T17:15:33.142Z,56.70
2022-09-10T17:17:59.645Z,57.10
2022-09-10T17:20:26.136Z,57.10
2022-09-10T17:22:52.623Z,56.80
2022-09-10T17:25:19.090Z,56.60
2022-09-10T17:27:45.557Z,56.70
2022-09-10T17:30:12.032Z,56.60
2022-09-10T17:32:38.500Z,56.50
2022-09-10T17:35:04.969Z,56.60
2022-09-10T17:37:31.451Z,56.50
2022-09-10T17:39:57.955Z,56.60
2022-09-10T17:42:24.453Z,56.60
2022-09-10T17:44:50.937Z,56.60
2022-09-10T17:47:17.422Z,56.80
2022-09-10T17:49:43.899Z,56.70
2022-09-10T17:52:10.369Z,56.80
2022-09-10T17:54:36.850Z,56.80
2022-09-10T17:57:03.331Z,56.70
2022-09-10T17:59:29.800Z,56.70
2022-09-10T18:01:56.303Z,56.70
2022-09-10T18:04:22.790Z,56.70
2022-09-10T18:06:52.437Z,56.90
2022-09-10T18:09:19.237Z,56.80
2022-09-10T18:11:45.719Z,56.80
2022-09-10T18:14:12.226Z,56.80
2022-09-10T18:16:38.686Z,56.70
2022-09-10T18:19:05.166Z,56.90
2022-09-10T18:21:31.643Z,56.90
2022-09-10T18:23:58.109Z,56.80
2022-09-10T18:26:24.571Z,56.90
2022-09-10T18:28:51.048Z,56.90
2022-09-10T18:31:17.643Z,56.80
2022-09-10T18:33:44.159Z,56.90
2022-09-10T18:36:10.632Z,56.80
2022-09-10T18:38:37.102Z,56.90
2022-09-10T18:41:03.588Z,56.70
2022-09-10T18:43:30.061Z,56.80
2022-09-10T18:45:56.546Z,56.90
2022-09-10T18:48:23.029Z,56.90
2022-09-10T18:50:49.502Z,56.90
2022-09-10T18:53:15.964Z,56.90
2022-09-10T18:55:42.430Z,56.90
2022-09-10T18:58:08.905Z,56.90
2022-09-10T19:00:35.377Z,56.90
2022-09-10T19:03:01.854Z,56.90
2022-09-10T19:05:28.329Z,56.90
2022-09-10T19:07:54.800Z,56.90
2022-09-10T19:10:21.283Z,57.00
2022-09-10T19:12:47.747Z,57.00
2022-09-10T19:15:14.255Z,57.00
2022-09-10T19:17:40.731Z,57.10
2022-09-10T19:20:07.226Z,57.10
2022-09-10T19:22:33.784Z,57.10
2022-09-10T19:25:00.284Z,57.00
2022-09-10T19:27:26.743Z,57.00
2022-09-10T19:29:53.237Z,57.10
2022-09-10T19:32:20.140Z,57.00
2022-09-10T19:34:46.851Z,57.00
2022-09-10T19:37:13.310Z,57.10
2022-09-10T19:39:39.875Z,57.10
2022-09-10T19:42:06.394Z,57.10
2022-09-10T19:44:32.860Z,57.10
2022-09-10T19:46:59.321Z,57.00
2022-09-10T19:49:25.797Z,57.00
2022-09-10T19:51:52.291Z,57.10
2022-09-10T19:54:18.752Z,56.90
2022-09-10T19:56:45.246Z,57.10
2022-09-10T19:59:11.715Z,57.00
2022-09-10T20:01:38.323Z,57.40
2022-09-10T20:04:04.880Z,57.00
2022-09-10T20:06:31.351Z,57.00
2022-09-10T20:08:57.828Z,57.00
2022-09-10T20:11:24.295Z,57.00
2022-09-10T20:13:50.750Z,57.00
2022-09-10T20:16:17.312Z,57.00
2022-09-10T20:18:43.863Z,57.00
2022-09-10T20:21:10.342Z,57.10
2022-09-10T20:23:36.817Z,57.20
2022-09-10T20:26:03.309Z,57.30
2022-09-10T20:28:29.790Z,57.20
2022-09-10T20:30:56.306Z,57.20
2022-09-10T20:33:22.800Z,57.10
2022-09-10T20:35:49.298Z,57.10
2022-09-10T20:38:15.788Z,57.10
2022-09-10T20:40:42.289Z,57.10
2022-09-10T20:43:08.766Z,57.10
2022-09-10T20:45:35.276Z,57.20
2022-09-10T20:48:01.731Z,57.20
2022-09-10T20:50:28.223Z,57.10
2022-09-10T20:52:54.693Z,57.10
2022-09-10T20:55:21.194Z,57.10
2022-09-10T20:57:47.684Z,57.70
2022-09-10T21:00:14.168Z,57.30
2022-09-10T21:02:40.706Z,57.10
2022-09-10T21:05:07.198Z,57.10
2022-09-10T21:07:33.685Z,56.90
2022-09-10T21:10:00.154Z,56.90
2022-09-10T21:12:26.631Z,57.00
2022-09-10T21:14:53.122Z,57.00
2022-09-10T21:17:19.599Z,57.00
2022-09-10T21:19:46.073Z,57.10
2022-09-10T21:22:12.531Z,56.90
2022-09-10T21:24:38.982Z,57.20
2022-09-10T21:27:05.450Z,57.10
2022-09-10T21:29:31.932Z,57.10
2022-09-10T21:31:58.396Z,57.10
2022-09-10T21:34:24.865Z,57.10
2022-09-10T21:36:51.337Z,57.60
2022-09-10T21:39:17.802Z,57.10
2022-09-10T21:41:44.289Z,57.00
2022-09-10T21:44:10.744Z,57.10
2022-09-10T21:46:37.291Z,57.10
2022-09-10T21:49:03.822Z,57.00
2022-09-10T21:51:30.285Z,57.10
2022-09-10T21:53:56.757Z,56.80
2022-09-10T21:56:23.239Z,57.60
2022-09-10T21:58:49.726Z,56.90
2022-09-10T22:01:16.245Z,57.10
2022-09-10T22:03:42.716Z,57.10
2022-09-10T22:06:09.195Z,57.20
2022-09-10T22:08:35.656Z,57.10
2022-09-10T22:11:02.144Z,57.10
2022-09-10T22:13:28.639Z,57.10
2022-09-10T22:15:55.179Z,57.10
2022-09-10T22:18:21.637Z,57.20
2022-09-10T22:20:48.113Z,57.10
2022-09-10T22:23:14.575Z,57.10
2022-09-10T22:25:41.073Z,57.10
2022-09-10T22:28:07.550Z,57.00
2022-09-10T22:30:34.052Z,57.00
2022-09-10T22:33:00.530Z,57.00
2022-09-10T22:35:27.032Z,57.00
2022-09-10T22:37:53.508Z,57.00
2022-09-10T22:40:20.002Z,57.00
2022-09-10T22:42:46.467Z,57.10
2022-09-10T22:45:12.945Z,57.10
2022-09-10T22:47:39.427Z,57.00
2022-09-10T22:50:05.892Z,57.00
2022-09-10T22:52:32.361Z,57.00
2022-09-10T22:54:58.828Z,57.00
2022-09-10T22:57:25.300Z,56.80
2022-09-10T22:59:51.771Z,57.00
2022-09-10T23:02:18.237Z,57.00
2022-09-10T23:04:44.696Z,57.20
2022-09-10T23:07:11.179Z,57.20
2022-09-10T23:09:37.649Z,57.10
2022-09-10T23:12:04.114Z,57.00
2022-09-10T23:14:30.574Z,57.00
2022-09-10T23:16:57.041Z,57.00
2022-09-10T23:19:23.510Z,57.00
2022-09-10T23:21:49.994Z,56.90
2022-09-10T23:24:16.471Z,56.90
2022-09-10T23:26:42.960Z,57.70
2022-09-10T23:29:09.440Z,56.90
2022-09-10T23:31:36.093Z,56.90
2022-09-10T23:34:02.627Z,56.90
2022-09-10T23:36:29.124Z,56.90
2022-09-10T23:38:55.589Z,56.90
2022-09-10T23:41:22.092Z,56.90
2022-09-10T23:43:48.555Z,56.90
2022-09-10T23:46:15.092Z,56.90
2022-09-10T23:48:41.635Z,56.80
2022-09-10T23:51:08.088Z,56.80
2022-09-10T23:53:34.567Z,56.80
2022-09-10T23:56:01.048Z,57.00
2022-09-10T23:58:27.526Z,56.90
